sensor_id;sensor_type;location;lat;lon;timestamp;temperature;humidity
19567;DHT22;9930;49.240;8.548;2022-12-17T00:01:24;-2.80;78.10
19567;DHT22;9930;49.240;8.548;2022-12-17T00:04:08;-2.80;78.00
19567;DHT22;9930;49.240;8.548;2022-12-17T00:06:52;-2.80;78.00
19567;DHT22;9930;49.240;8.548;2022-12-17T00:09:37;-2.90;78.00
19567;DHT22;9930;49.240;8.548;2022-12-17T00:12:21;-2.90;78.00
19567;DHT22;9930;49.240;8.548;2022-12-17T00:15:08;-2.90;78.00
19567;DHT22;9930;49.240;8.548;2022-12-17T00:18:03;-2.90;77.90
19567;DHT22;9930;49.240;8.548;2022-12-17T00:20:54;-3.00;77.70
19567;DHT22;9930;49.240;8.548;2022-12-17T00:23:43;-3.00;77.80
19567;DHT22;9930;49.240;8.548;2022-12-17T00:26:28;-3.00;77.80
19567;DHT22;9930;49.240;8.548;2022-12-17T00:29:12;-3.10;77.70
19567;DHT22;9930;49.240;8.548;2022-12-17T00:31:57;-3.10;77.70
19567;DHT22;9930;49.240;8.548;2022-12-17T00:34:41;-3.10;78.40
19567;DHT22;9930;49.240;8.548;2022-12-17T00:37:25;-3.10;77.90
19567;DHT22;9930;49.240;8.548;2022-12-17T00:40:10;-3.20;77.90
19567;DHT22;9930;49.240;8.548;2022-12-17T00:43:02;-3.20;77.90
19567;DHT22;9930;49.240;8.548;2022-12-17T00:45:56;-3.20;78.00
19567;DHT22;9930;49.240;8.548;2022-12-17T00:48:41;-3.20;78.00
19567;DHT22;9930;49.240;8.548;2022-12-17T00:51:29;-3.30;77.90
19567;DHT22;9930;49.240;8.548;2022-12-17T00:54:13;-3.30;77.90
19567;DHT22;9930;49.240;8.548;2022-12-17T00:56:58;-3.30;77.80
19567;DHT22;9930;49.240;8.548;2022-12-17T00:59:43;-3.30;77.80
19567;DHT22;9930;49.240;8.548;2022-12-17T01:02:27;-3.40;77.70
19567;DHT22;9930;49.240;8.548;2022-12-17T01:05:12;-3.40;77.80
19567;DHT22;9930;49.240;8.548;2022-12-17T01:08:04;-3.40;77.70
19567;DHT22;9930;49.240;8.548;2022-12-17T01:11:01;-3.40;77.80
19567;DHT22;9930;49.240;8.548;2022-12-17T01:13:48;-3.50;77.80
19567;DHT22;9930;49.240;8.548;2022-12-17T01:16:40;-3.50;77.80
19567;DHT22;9930;49.240;8.548;2022-12-17T01:19:24;-3.50;77.80
19567;DHT22;9930;49.240;8.548;2022-12-17T01:22:08;-3.50;77.90
19567;DHT22;9930;49.240;8.548;2022-12-17T01:24:52;-3.60;77.90
19567;DHT22;9930;49.240;8.548;2022-12-17T01:27:41;-3.60;77.80
19567;DHT22;9930;49.240;8.548;2022-12-17T01:30:25;-3.60;77.70
19567;DHT22;9930;49.240;8.548;2022-12-17T01:33:09;-3.60;77.80
19567;DHT22;9930;49.240;8.548;2022-12-17T01:35:59;-3.70;77.80
19567;DHT22;9930;49.240;8.548;2022-12-17T01:38:43;-3.70;77.90
19567;DHT22;9930;49.240;8.548;2022-12-17T01:41:28;-3.70;78.10
19567;DHT22;9930;49.240;8.548;2022-12-17T01:47:34;-3.70;78.40
19567;DHT22;9930;49.240;8.548;2022-12-17T01:50:28;-3.70;78.30
19567;DHT22;9930;49.240;8.548;2022-12-17T01:53:17;-3.80;78.20
19567;DHT22;9930;49.240;8.548;2022-12-17T01:56:08;-3.80;78.90
19567;DHT22;9930;49.240;8.548;2022-12-17T01:58:54;-3.80;78.20
19567;DHT22;9930;49.240;8.548;2022-12-17T02:01:42;-3.80;78.20
19567;DHT22;9930;49.240;8.548;2022-12-17T02:04:26;-3.80;78.20
19567;DHT22;9930;49.240;8.548;2022-12-17T02:07:24;-3.80;78.20
19567;DHT22;9930;49.240;8.548;2022-12-17T02:17:13;-3.90;77.90
19567;DHT22;9930;49.240;8.548;2022-12-17T02:20:18;-3.90;77.90
19567;DHT22;9930;49.240;8.548;2022-12-17T02:26:59;-4.00;78.00
19567;DHT22;9930;49.240;8.548;2022-12-17T02:29:52;-4.00;78.00
19567;DHT22;9930;49.240;8.548;2022-12-17T02:32:40;-4.10;77.90
19567;DHT22;9930;49.240;8.548;2022-12-17T02:35:43;-4.10;77.90
19567;DHT22;9930;49.240;8.548;2022-12-17T02:38:30;-4.10;77.90
19567;DHT22;9930;49.240;8.548;2022-12-17T02:41:51;-4.10;77.90
19567;DHT22;9930;49.240;8.548;2022-12-17T02:44:41;-4.20;77.80
19567;DHT22;9930;49.240;8.548;2022-12-17T02:47:29;-4.20;77.80
19567;DHT22;9930;49.240;8.548;2022-12-17T02:50:13;-4.20;77.90
19567;DHT22;9930;49.240;8.548;2022-12-17T02:53:06;-4.30;77.80
19567;DHT22;9930;49.240;8.548;2022-12-17T02:55:54;-4.30;77.70
19567;DHT22;9930;49.240;8.548;2022-12-17T02:58:38;-4.30;77.70
19567;DHT22;9930;49.240;8.548;2022-12-17T03:01:39;-4.30;77.50
19567;DHT22;9930;49.240;8.548;2022-12-17T03:04:23;-4.40;77.50
19567;DHT22;9930;49.240;8.548;2022-12-17T03:07:11;-4.40;77.40
19567;DHT22;9930;49.240;8.548;2022-12-17T03:09:57;-4.40;77.60
19567;DHT22;9930;49.240;8.548;2022-12-17T03:12:44;-4.40;77.80
19567;DHT22;9930;49.240;8.548;2022-12-17T03:15:28;-4.50;77.80
19567;DHT22;9930;49.240;8.548;2022-12-17T03:18:13;-4.50;77.90
19567;DHT22;9930;49.240;8.548;2022-12-17T03:20:57;-4.50;78.00
19567;DHT22;9930;49.240;8.548;2022-12-17T03:23:43;-4.40;78.20
19567;DHT22;9930;49.240;8.548;2022-12-17T03:26:28;-4.40;78.40
19567;DHT22;9930;49.240;8.548;2022-12-17T03:29:12;-4.40;78.60
19567;DHT22;9930;49.240;8.548;2022-12-17T03:31:56;-4.30;78.70
19567;DHT22;9930;49.240;8.548;2022-12-17T03:34:40;-4.30;78.80
19567;DHT22;9930;49.240;8.548;2022-12-17T03:37:26;-4.30;78.80
19567;DHT22;9930;49.240;8.548;2022-12-17T03:40:11;-4.20;78.90
19567;DHT22;9930;49.240;8.548;2022-12-17T03:42:55;-4.20;78.90
19567;DHT22;9930;49.240;8.548;2022-12-17T03:45:39;-4.20;79.00
19567;DHT22;9930;49.240;8.548;2022-12-17T03:48:23;-4.10;79.00
19567;DHT22;9930;49.240;8.548;2022-12-17T03:51:08;-4.10;79.00
19567;DHT22;9930;49.240;8.548;2022-12-17T03:53:52;-4.10;78.90
19567;DHT22;9930;49.240;8.548;2022-12-17T03:56:42;-4.10;78.90
19567;DHT22;9930;49.240;8.548;2022-12-17T03:59:27;-4.00;79.10
19567;DHT22;9930;49.240;8.548;2022-12-17T04:02:14;-4.00;79.10
19567;DHT22;9930;49.240;8.548;2022-12-17T04:05:01;-4.00;79.10
19567;DHT22;9930;49.240;8.548;2022-12-17T04:07:54;-3.90;79.20
19567;DHT22;9930;49.240;8.548;2022-12-17T04:10:42;-3.90;79.20
19567;DHT22;9930;49.240;8.548;2022-12-17T04:13:26;-3.90;79.20
19567;DHT22;9930;49.240;8.548;2022-12-17T04:16:10;-3.90;79.20
19567;DHT22;9930;49.240;8.548;2022-12-17T04:18:54;-3.90;79.40
19567;DHT22;9930;49.240;8.548;2022-12-17T04:21:41;-3.80;79.50
19567;DHT22;9930;49.240;8.548;2022-12-17T04:24:25;-3.80;79.60
19567;DHT22;9930;49.240;8.548;2022-12-17T04:27:11;-3.70;79.80
19567;DHT22;9930;49.240;8.548;2022-12-17T04:29:55;-3.70;80.00
19567;DHT22;9930;49.240;8.548;2022-12-17T04:32:40;-3.60;80.00
19567;DHT22;9930;49.240;8.548;2022-12-17T04:35:27;-3.60;80.10
19567;DHT22;9930;49.240;8.548;2022-12-17T04:38:14;-3.50;80.20
19567;DHT22;9930;49.240;8.548;2022-12-17T04:41:09;-3.50;80.20
19567;DHT22;9930;49.240;8.548;2022-12-17T04:43:53;-3.50;80.10
19567;DHT22;9930;49.240;8.548;2022-12-17T04:46:41;-3.40;80.20
19567;DHT22;9930;49.240;8.548;2022-12-17T04:49:27;-3.40;80.20
19567;DHT22;9930;49.240;8.548;2022-12-17T04:52:11;-3.30;80.20
19567;DHT22;9930;49.240;8.548;2022-12-17T04:54:58;-3.30;80.30
19567;DHT22;9930;49.240;8.548;2022-12-17T04:57:42;-3.30;80.20
19567;DHT22;9930;49.240;8.548;2022-12-17T05:00:27;-3.20;80.30
19567;DHT22;9930;49.240;8.548;2022-12-17T05:03:13;-3.20;80.30
19567;DHT22;9930;49.240;8.548;2022-12-17T05:05:58;-3.20;80.30
19567;DHT22;9930;49.240;8.548;2022-12-17T05:08:48;-3.10;80.20
19567;DHT22;9930;49.240;8.548;2022-12-17T05:11:37;-3.10;80.20
19567;DHT22;9930;49.240;8.548;2022-12-17T05:14:21;-3.10;80.30
19567;DHT22;9930;49.240;8.548;2022-12-17T05:17:07;-3.10;80.40
19567;DHT22;9930;49.240;8.548;2022-12-17T05:19:55;-3.00;80.50
19567;DHT22;9930;49.240;8.548;2022-12-17T05:22:41;-3.00;80.90
19567;DHT22;9930;49.240;8.548;2022-12-17T05:25:25;-3.00;80.60
19567;DHT22;9930;49.240;8.548;2022-12-17T05:28:09;-3.00;80.60
19567;DHT22;9930;49.240;8.548;2022-12-17T05:30:56;-2.90;80.70
19567;DHT22;9930;49.240;8.548;2022-12-17T05:33:43;-2.90;80.70
19567;DHT22;9930;49.240;8.548;2022-12-17T05:36:28;-2.90;80.60
19567;DHT22;9930;49.240;8.548;2022-12-17T05:39:12;-2.80;80.70
19567;DHT22;9930;49.240;8.548;2022-12-17T05:41:56;-2.80;80.60
19567;DHT22;9930;49.240;8.548;2022-12-17T05:44:40;-2.80;80.60
19567;DHT22;9930;49.240;8.548;2022-12-17T05:47:24;-2.80;80.60
19567;DHT22;9930;49.240;8.548;2022-12-17T05:50:09;-2.80;80.50
19567;DHT22;9930;49.240;8.548;2022-12-17T05:53:03;-2.70;80.60
19567;DHT22;9930;49.240;8.548;2022-12-17T05:55:58;-2.70;80.60
19567;DHT22;9930;49.240;8.548;2022-12-17T05:58:42;-2.70;80.50
19567;DHT22;9930;49.240;8.548;2022-12-17T06:01:29;-2.70;80.40
19567;DHT22;9930;49.240;8.548;2022-12-17T06:04:13;-2.70;80.40
19567;DHT22;9930;49.240;8.548;2022-12-17T06:06:57;-2.70;80.40
19567;DHT22;9930;49.240;8.548;2022-12-17T06:09:41;-2.70;80.50
19567;DHT22;9930;49.240;8.548;2022-12-17T06:12:25;-2.70;80.60
19567;DHT22;9930;49.240;8.548;2022-12-17T06:15:09;-2.70;80.60
19567;DHT22;9930;49.240;8.548;2022-12-17T06:17:57;-2.70;80.60
19567;DHT22;9930;49.240;8.548;2022-12-17T06:20:46;-2.60;80.70
19567;DHT22;9930;49.240;8.548;2022-12-17T06:23:30;-2.60;80.60
19567;DHT22;9930;49.240;8.548;2022-12-17T06:26:14;-2.60;80.60
19567;DHT22;9930;49.240;8.548;2022-12-17T06:28:58;-2.60;80.60
19567;DHT22;9930;49.240;8.548;2022-12-17T06:31:42;-2.60;80.60
19567;DHT22;9930;49.240;8.548;2022-12-17T06:34:27;-2.50;80.70
19567;DHT22;9930;49.240;8.548;2022-12-17T06:37:11;-2.60;80.60
19567;DHT22;9930;49.240;8.548;2022-12-17T06:39:57;-2.50;80.70
19567;DHT22;9930;49.240;8.548;2022-12-17T06:42:51;-2.50;80.60
19567;DHT22;9930;49.240;8.548;2022-12-17T06:45:38;-2.60;80.50
19567;DHT22;9930;49.240;8.548;2022-12-17T06:48:25;-2.50;80.60
19567;DHT22;9930;49.240;8.548;2022-12-17T06:51:09;-2.50;80.60
19567;DHT22;9930;49.240;8.548;2022-12-17T06:53:55;-2.50;80.50
19567;DHT22;9930;49.240;8.548;2022-12-17T06:56:39;-2.50;80.70
19567;DHT22;9930;49.240;8.548;2022-12-17T06:59:23;-2.60;80.50
19567;DHT22;9930;49.240;8.548;2022-12-17T07:02:13;-2.50;80.50
19567;DHT22;9930;49.240;8.548;2022-12-17T07:04:57;-2.60;80.20
19567;DHT22;9930;49.240;8.548;2022-12-17T07:07:44;-2.60;80.20
19567;DHT22;9930;49.240;8.548;2022-12-17T07:10:38;-2.60;80.30
19567;DHT22;9930;49.240;8.548;2022-12-17T07:13:22;-2.60;80.40
19567;DHT22;9930;49.240;8.548;2022-12-17T07:16:11;-2.60;81.20
19567;DHT22;9930;49.240;8.548;2022-12-17T07:18:55;-2.60;80.30
19567;DHT22;9930;49.240;8.548;2022-12-17T07:21:40;-2.60;80.40
19567;DHT22;9930;49.240;8.548;2022-12-17T07:24:24;-2.60;80.30
19567;DHT22;9930;49.240;8.548;2022-12-17T07:27:08;-2.60;80.40
19567;DHT22;9930;49.240;8.548;2022-12-17T07:29:52;-2.60;80.30
19567;DHT22;9930;49.240;8.548;2022-12-17T07:32:42;-2.60;80.10
19567;DHT22;9930;49.240;8.548;2022-12-17T07:35:28;-2.70;79.90
19567;DHT22;9930;49.240;8.548;2022-12-17T07:38:15;-2.70;79.60
19567;DHT22;9930;49.240;8.548;2022-12-17T07:40:59;-2.70;79.60
19567;DHT22;9930;49.240;8.548;2022-12-17T07:43:43;-2.80;79.60
19567;DHT22;9930;49.240;8.548;2022-12-17T07:46:27;-2.80;79.80
19567;DHT22;9930;49.240;8.548;2022-12-17T07:49:12;-2.80;80.00
19567;DHT22;9930;49.240;8.548;2022-12-17T07:51:58;-2.80;79.60
19567;DHT22;9930;49.240;8.548;2022-12-17T07:54:45;-2.90;79.50
19567;DHT22;9930;49.240;8.548;2022-12-17T07:57:32;-2.90;79.40
19567;DHT22;9930;49.240;8.548;2022-12-17T08:00:21;-3.00;79.30
19567;DHT22;9930;49.240;8.548;2022-12-17T08:03:08;-3.10;79.30
19567;DHT22;9930;49.240;8.548;2022-12-17T08:05:55;-3.10;79.40
19567;DHT22;9930;49.240;8.548;2022-12-17T08:08:40;-3.10;79.50
19567;DHT22;9930;49.240;8.548;2022-12-17T08:11:25;-3.20;79.60
19567;DHT22;9930;49.240;8.548;2022-12-17T08:14:09;-3.20;79.60
19567;DHT22;9930;49.240;8.548;2022-12-17T08:16:54;-3.20;79.70
19567;DHT22;9930;49.240;8.548;2022-12-17T08:19:43;-3.20;79.50
19567;DHT22;9930;49.240;8.548;2022-12-17T08:22:28;-3.30;79.20
19567;DHT22;9930;49.240;8.548;2022-12-17T08:25:12;-3.30;79.40
19567;DHT22;9930;49.240;8.548;2022-12-17T08:27:57;-3.30;79.60
19567;DHT22;9930;49.240;8.548;2022-12-17T08:30:47;-3.30;79.70
19567;DHT22;9930;49.240;8.548;2022-12-17T08:33:38;-3.40;79.70
19567;DHT22;9930;49.240;8.548;2022-12-17T08:36:22;-3.30;79.70
19567;DHT22;9930;49.240;8.548;2022-12-17T08:39:12;-3.30;79.90
19567;DHT22;9930;49.240;8.548;2022-12-17T08:41:56;-3.30;79.90
19567;DHT22;9930;49.240;8.548;2022-12-17T08:44:40;-3.30;79.80
19567;DHT22;9930;49.240;8.548;2022-12-17T08:47:24;-3.30;79.80
19567;DHT22;9930;49.240;8.548;2022-12-17T08:50:09;-3.30;79.80
19567;DHT22;9930;49.240;8.548;2022-12-17T08:53:03;-3.30;79.80
19567;DHT22;9930;49.240;8.548;2022-12-17T08:55:52;-3.30;79.90
19567;DHT22;9930;49.240;8.548;2022-12-17T08:58:38;-3.30;80.00
19567;DHT22;9930;49.240;8.548;2022-12-17T09:01:22;-3.20;80.10
19567;DHT22;9930;49.240;8.548;2022-12-17T09:04:08;-3.20;80.20
19567;DHT22;9930;49.240;8.548;2022-12-17T09:06:52;-3.20;80.20
19567;DHT22;9930;49.240;8.548;2022-12-17T09:09:38;-3.10;80.20
19567;DHT22;9930;49.240;8.548;2022-12-17T09:12:23;-3.10;80.20
19567;DHT22;9930;49.240;8.548;2022-12-17T09:15:08;-3.10;80.10
19567;DHT22;9930;49.240;8.548;2022-12-17T09:17:53;-3.00;80.20
19567;DHT22;9930;49.240;8.548;2022-12-17T09:20:42;-2.90;80.10
19567;DHT22;9930;49.240;8.548;2022-12-17T09:23:26;-2.90;80.20
19567;DHT22;9930;49.240;8.548;2022-12-17T09:26:10;-2.90;80.30
19567;DHT22;9930;49.240;8.548;2022-12-17T09:28:54;-2.80;80.40
19567;DHT22;9930;49.240;8.548;2022-12-17T09:31:38;-2.80;80.20
19567;DHT22;9930;49.240;8.548;2022-12-17T09:34:23;-2.70;79.90
19567;DHT22;9930;49.240;8.548;2022-12-17T09:37:08;-2.70;79.60
19567;DHT22;9930;49.240;8.548;2022-12-17T09:39:52;-2.80;79.40
19567;DHT22;9930;49.240;8.548;2022-12-17T09:42:50;-2.70;79.50
19567;DHT22;9930;49.240;8.548;2022-12-17T09:45:52;-2.80;79.60
19567;DHT22;9930;49.240;8.548;2022-12-17T09:49:12;-2.80;79.70
19567;DHT22;9930;49.240;8.548;2022-12-17T09:55:24;-2.70;80.80
19567;DHT22;9930;49.240;8.548;2022-12-17T09:58:21;-2.70;80.00
19567;DHT22;9930;49.240;8.548;2022-12-17T10:01:30;-2.60;79.80
19567;DHT22;9930;49.240;8.548;2022-12-17T10:04:33;-2.60;79.80
19567;DHT22;9930;49.240;8.548;2022-12-17T10:07:30;-2.60;79.80
19567;DHT22;9930;49.240;8.548;2022-12-17T10:10:26;-2.60;79.70
19567;DHT22;9930;49.240;8.548;2022-12-17T10:13:17;-2.60;79.70
19567;DHT22;9930;49.240;8.548;2022-12-17T10:22:24;-2.40;80.50
19567;DHT22;9930;49.240;8.548;2022-12-17T10:25:20;-2.30;80.40
19567;DHT22;9930;49.240;8.548;2022-12-17T10:28:17;-2.30;80.30
19567;DHT22;9930;49.240;8.548;2022-12-17T10:31:29;-2.20;80.10
19567;DHT22;9930;49.240;8.548;2022-12-17T10:34:16;-2.20;80.00
19567;DHT22;9930;49.240;8.548;2022-12-17T10:37:04;-2.20;79.90
19567;DHT22;9930;49.240;8.548;2022-12-17T10:40:02;-2.10;79.90
19567;DHT22;9930;49.240;8.548;2022-12-17T10:43:00;-2.10;80.00
19567;DHT22;9930;49.240;8.548;2022-12-17T10:45:53;-2.10;79.90
19567;DHT22;9930;49.240;8.548;2022-12-17T10:48:42;-2.10;79.80
19567;DHT22;9930;49.240;8.548;2022-12-17T10:51:31;-2.00;79.90
19567;DHT22;9930;49.240;8.548;2022-12-17T10:54:25;-2.00;80.00
19567;DHT22;9930;49.240;8.548;2022-12-17T10:57:32;-1.90;80.30
19567;DHT22;9930;49.240;8.548;2022-12-17T11:00:44;-1.90;80.60
19567;DHT22;9930;49.240;8.548;2022-12-17T11:03:51;-1.80;80.80
19567;DHT22;9930;49.240;8.548;2022-12-17T11:06:52;-1.70;80.70
19567;DHT22;9930;49.240;8.548;2022-12-17T11:09:46;-1.60;80.80
19567;DHT22;9930;49.240;8.548;2022-12-17T11:12:51;-1.50;80.60
19567;DHT22;9930;49.240;8.548;2022-12-17T11:15:55;-1.50;80.20
19567;DHT22;9930;49.240;8.548;2022-12-17T11:21:55;-1.30;80.50
19567;DHT22;9930;49.240;8.548;2022-12-17T11:25:03;-1.20;80.70
19567;DHT22;9930;49.240;8.548;2022-12-17T11:28:16;-1.20;80.70
19567;DHT22;9930;49.240;8.548;2022-12-17T11:31:26;-1.00;80.70
19567;DHT22;9930;49.240;8.548;2022-12-17T11:34:38;-1.00;80.60
19567;DHT22;9930;49.240;8.548;2022-12-17T11:38:01;-0.90;80.50
19567;DHT22;9930;49.240;8.548;2022-12-17T11:41:10;-0.80;80.40
19567;DHT22;9930;49.240;8.548;2022-12-17T11:48:23;-0.60;80.10
19567;DHT22;9930;49.240;8.548;2022-12-17T11:51:17;-0.60;80.10
19567;DHT22;9930;49.240;8.548;2022-12-17T11:57:13;-0.40;80.30
19567;DHT22;9930;49.240;8.548;2022-12-17T12:00:05;-0.50;80.00
19567;DHT22;9930;49.240;8.548;2022-12-17T12:06:03;-0.30;79.80
19567;DHT22;9930;49.240;8.548;2022-12-17T12:16:05;-0.20;79.60
19567;DHT22;9930;49.240;8.548;2022-12-17T12:22:14;-0.20;79.50
19567;DHT22;9930;49.240;8.548;2022-12-17T12:25:28;-0.10;79.50
19567;DHT22;9930;49.240;8.548;2022-12-17T12:35:00;-0.10;79.00
19567;DHT22;9930;49.240;8.548;2022-12-17T12:37:46;-0.10;79.00
19567;DHT22;9930;49.240;8.548;2022-12-17T12:41:14;-0.20;78.90
19567;DHT22;9930;49.240;8.548;2022-12-17T12:43:50;-0.10;79.00
19567;DHT22;9930;49.240;8.548;2022-12-17T12:46:59;-0.10;79.10
19567;DHT22;9930;49.240;8.548;2022-12-17T12:50:47;-0.20;79.70
19567;DHT22;9930;49.240;8.548;2022-12-17T12:53:29;-0.10;78.90
19567;DHT22;9930;49.240;8.548;2022-12-17T12:59:29;-0.10;78.90
19567;DHT22;9930;49.240;8.548;2022-12-17T13:02:31;-0.10;78.90
19567;DHT22;9930;49.240;8.548;2022-12-17T13:05:30;-0.10;78.80
19567;DHT22;9930;49.240;8.548;2022-12-17T13:10:36;-0.10;78.90
19567;DHT22;9930;49.240;8.548;2022-12-17T13:15:46;-0.10;78.80
19567;DHT22;9930;49.240;8.548;2022-12-17T13:18:37;-0.10;78.90
19567;DHT22;9930;49.240;8.548;2022-12-17T13:23:42;-0.10;78.80
19567;DHT22;9930;49.240;8.548;2022-12-17T13:26:23;-0.10;78.80
19567;DHT22;9930;49.240;8.548;2022-12-17T13:29:01;-0.10;78.60
19567;DHT22;9930;49.240;8.548;2022-12-17T13:37:59;-0.10;78.70
19567;DHT22;9930;49.240;8.548;2022-12-17T13:43:17;-0.10;78.60
19567;DHT22;9930;49.240;8.548;2022-12-17T13:45:45;-0.10;78.60
19567;DHT22;9930;49.240;8.548;2022-12-17T13:48:23;-0.10;78.60
19567;DHT22;9930;49.240;8.548;2022-12-17T13:51:05;-0.10;78.50
19567;DHT22;9930;49.240;8.548;2022-12-17T13:53:51;-0.10;78.40
19567;DHT22;9930;49.240;8.548;2022-12-17T13:56:26;-0.10;78.50
19567;DHT22;9930;49.240;8.548;2022-12-17T13:58:55;-0.10;78.50
19567;DHT22;9930;49.240;8.548;2022-12-17T14:01:23;-0.10;78.50
19567;DHT22;9930;49.240;8.548;2022-12-17T14:04:00;-0.10;78.60
19567;DHT22;9930;49.240;8.548;2022-12-17T14:06:31;-0.20;78.40
19567;DHT22;9930;49.240;8.548;2022-12-17T14:09:05;-0.20;78.40
19567;DHT22;9930;49.240;8.548;2022-12-17T14:11:43;-0.20;78.50
19567;DHT22;9930;49.240;8.548;2022-12-17T14:14:32;-0.20;78.50
19567;DHT22;9930;49.240;8.548;2022-12-17T14:17:03;-0.20;78.50
19567;DHT22;9930;49.240;8.548;2022-12-17T14:19:32;-0.30;78.30
19567;DHT22;9930;49.240;8.548;2022-12-17T14:22:00;-0.30;78.30
19567;DHT22;9930;49.240;8.548;2022-12-17T14:24:30;-0.30;78.30
19567;DHT22;9930;49.240;8.548;2022-12-17T14:26:58;-0.30;78.30
19567;DHT22;9930;49.240;8.548;2022-12-17T14:29:31;-0.40;78.30
19567;DHT22;9930;49.240;8.548;2022-12-17T14:32:01;-0.50;78.10
19567;DHT22;9930;49.240;8.548;2022-12-17T14:34:45;-0.50;78.20
19567;DHT22;9930;49.240;8.548;2022-12-17T14:37:21;-0.50;78.10
19567;DHT22;9930;49.240;8.548;2022-12-17T14:39:49;-0.60;78.00
19567;DHT22;9930;49.240;8.548;2022-12-17T14:42:23;-0.60;78.10
19567;DHT22;9930;49.240;8.548;2022-12-17T14:44:53;-0.70;78.00
19567;DHT22;9930;49.240;8.548;2022-12-17T14:47:28;-0.70;78.00
19567;DHT22;9930;49.240;8.548;2022-12-17T14:52:49;-0.80;78.00
19567;DHT22;9930;49.240;8.548;2022-12-17T14:55:23;-0.90;78.10
19567;DHT22;9930;49.240;8.548;2022-12-17T14:57:52;-0.90;78.00
19567;DHT22;9930;49.240;8.548;2022-12-17T15:00:31;-1.00;78.00
19567;DHT22;9930;49.240;8.548;2022-12-17T15:02:57;-1.10;78.00
19567;DHT22;9930;49.240;8.548;2022-12-17T15:05:23;-1.20;78.00
19567;DHT22;9930;49.240;8.548;2022-12-17T15:07:49;-1.20;78.00
19567;DHT22;9930;49.240;8.548;2022-12-17T15:10:18;-1.30;78.00
19567;DHT22;9930;49.240;8.548;2022-12-17T15:12:45;-1.30;78.00
19567;DHT22;9930;49.240;8.548;2022-12-17T15:15:15;-1.40;78.10
19567;DHT22;9930;49.240;8.548;2022-12-17T15:17:44;-1.50;78.10
19567;DHT22;9930;49.240;8.548;2022-12-17T15:20:16;-1.50;78.10
19567;DHT22;9930;49.240;8.548;2022-12-17T15:22:45;-1.60;78.20
19567;DHT22;9930;49.240;8.548;2022-12-17T15:25:17;-1.60;78.20
19567;DHT22;9930;49.240;8.548;2022-12-17T15:27:44;-1.70;78.20
19567;DHT22;9930;49.240;8.548;2022-12-17T15:30:15;-1.80;78.20
19567;DHT22;9930;49.240;8.548;2022-12-17T15:32:42;-1.80;78.30
19567;DHT22;9930;49.240;8.548;2022-12-17T15:35:09;-1.80;78.40
19567;DHT22;9930;49.240;8.548;2022-12-17T15:37:38;-1.90;78.40
19567;DHT22;9930;49.240;8.548;2022-12-17T15:40:07;-2.00;78.50
19567;DHT22;9930;49.240;8.548;2022-12-17T15:42:41;-2.00;78.50
19567;DHT22;9930;49.240;8.548;2022-12-17T15:45:25;-2.00;78.50
19567;DHT22;9930;49.240;8.548;2022-12-17T15:47:54;-2.10;78.50
19567;DHT22;9930;49.240;8.548;2022-12-17T15:50:22;-2.10;78.70
19567;DHT22;9930;49.240;8.548;2022-12-17T15:52:51;-2.20;78.80
19567;DHT22;9930;49.240;8.548;2022-12-17T15:55:19;-2.20;79.00
19567;DHT22;9930;49.240;8.548;2022-12-17T15:57:45;-2.20;79.20
19567;DHT22;9930;49.240;8.548;2022-12-17T16:00:14;-2.20;79.20
19567;DHT22;9930;49.240;8.548;2022-12-17T16:02:40;-2.20;79.20
19567;DHT22;9930;49.240;8.548;2022-12-17T16:05:06;-2.20;79.20
19567;DHT22;9930;49.240;8.548;2022-12-17T16:07:33;-2.30;79.30
19567;DHT22;9930;49.240;8.548;2022-12-17T16:09:59;-2.30;79.20
19567;DHT22;9930;49.240;8.548;2022-12-17T16:12:25;-2.30;79.40
19567;DHT22;9930;49.240;8.548;2022-12-17T16:14:50;-2.20;79.40
19567;DHT22;9930;49.240;8.548;2022-12-17T16:17:16;-2.30;79.30
19567;DHT22;9930;49.240;8.548;2022-12-17T16:19:43;-2.30;79.40
19567;DHT22;9930;49.240;8.548;2022-12-17T16:22:11;-2.30;79.50
19567;DHT22;9930;49.240;8.548;2022-12-17T16:24:42;-2.30;79.30
19567;DHT22;9930;49.240;8.548;2022-12-17T16:27:12;-2.40;79.30
19567;DHT22;9930;49.240;8.548;2022-12-17T16:29:39;-2.40;79.50
19567;DHT22;9930;49.240;8.548;2022-12-17T16:32:08;-2.40;79.50
19567;DHT22;9930;49.240;8.548;2022-12-17T16:34:41;-2.40;79.60
19567;DHT22;9930;49.240;8.548;2022-12-17T16:37:09;-2.40;79.70
19567;DHT22;9930;49.240;8.548;2022-12-17T16:39:38;-2.40;79.80
19567;DHT22;9930;49.240;8.548;2022-12-17T16:42:06;-2.40;79.70
19567;DHT22;9930;49.240;8.548;2022-12-17T16:44:39;-2.40;79.60
19567;DHT22;9930;49.240;8.548;2022-12-17T16:47:09;-2.40;79.70
19567;DHT22;9930;49.240;8.548;2022-12-17T16:49:38;-2.40;79.60
19567;DHT22;9930;49.240;8.548;2022-12-17T16:52:05;-2.40;79.60
19567;DHT22;9930;49.240;8.548;2022-12-17T16:54:34;-2.40;79.50
19567;DHT22;9930;49.240;8.548;2022-12-17T16:57:04;-2.40;79.60
19567;DHT22;9930;49.240;8.548;2022-12-17T16:59:37;-2.40;79.70
19567;DHT22;9930;49.240;8.548;2022-12-17T17:02:04;-2.50;79.50
19567;DHT22;9930;49.240;8.548;2022-12-17T17:04:38;-2.50;79.60
19567;DHT22;9930;49.240;8.548;2022-12-17T17:07:04;-2.50;79.80
19567;DHT22;9930;49.240;8.548;2022-12-17T17:09:32;-2.50;80.00
19567;DHT22;9930;49.240;8.548;2022-12-17T17:11:58;-2.50;80.10
19567;DHT22;9930;49.240;8.548;2022-12-17T17:14:26;-2.50;80.20
19567;DHT22;9930;49.240;8.548;2022-12-17T17:16:52;-2.50;80.00
19567;DHT22;9930;49.240;8.548;2022-12-17T17:19:17;-2.40;79.80
19567;DHT22;9930;49.240;8.548;2022-12-17T17:21:53;-2.50;79.70
19567;DHT22;9930;49.240;8.548;2022-12-17T17:24:22;-2.50;79.60
19567;DHT22;9930;49.240;8.548;2022-12-17T17:26:51;-2.50;79.60
19567;DHT22;9930;49.240;8.548;2022-12-17T17:29:17;-2.60;79.70
19567;DHT22;9930;49.240;8.548;2022-12-17T17:31:44;-2.50;79.90
19567;DHT22;9930;49.240;8.548;2022-12-17T17:34:11;-2.50;79.70
19567;DHT22;9930;49.240;8.548;2022-12-17T17:36:42;-2.60;79.50
19567;DHT22;9930;49.240;8.548;2022-12-17T17:39:08;-2.60;79.60
19567;DHT22;9930;49.240;8.548;2022-12-17T17:41:42;-2.60;79.60
19567;DHT22;9930;49.240;8.548;2022-12-17T17:44:12;-2.70;79.60
19567;DHT22;9930;49.240;8.548;2022-12-17T17:46:39;-2.70;79.90
19567;DHT22;9930;49.240;8.548;2022-12-17T17:49:09;-2.60;80.10
19567;DHT22;9930;49.240;8.548;2022-12-17T17:51:40;-2.60;79.90
19567;DHT22;9930;49.240;8.548;2022-12-17T17:54:11;-2.60;79.90
19567;DHT22;9930;49.240;8.548;2022-12-17T17:56:42;-2.60;79.90
19567;DHT22;9930;49.240;8.548;2022-12-17T17:59:13;-2.70;79.60
19567;DHT22;9930;49.240;8.548;2022-12-17T18:01:44;-2.70;79.90
19567;DHT22;9930;49.240;8.548;2022-12-17T18:04:14;-2.70;79.90
19567;DHT22;9930;49.240;8.548;2022-12-17T18:06:43;-2.70;79.90
19567;DHT22;9930;49.240;8.548;2022-12-17T18:09:11;-2.70;79.90
19567;DHT22;9930;49.240;8.548;2022-12-17T18:11:42;-2.70;79.90
19567;DHT22;9930;49.240;8.548;2022-12-17T18:14:10;-2.70;79.90
19567;DHT22;9930;49.240;8.548;2022-12-17T18:16:41;-2.70;79.90
19567;DHT22;9930;49.240;8.548;2022-12-17T18:19:17;-2.70;80.00
19567;DHT22;9930;49.240;8.548;2022-12-17T18:21:51;-2.70;80.00
19567;DHT22;9930;49.240;8.548;2022-12-17T18:24:19;-2.70;80.10
19567;DHT22;9930;49.240;8.548;2022-12-17T18:26:50;-2.70;80.00
19567;DHT22;9930;49.240;8.548;2022-12-17T18:29:21;-2.70;80.10
19567;DHT22;9930;49.240;8.548;2022-12-17T18:31:51;-2.70;80.30
19567;DHT22;9930;49.240;8.548;2022-12-17T18:34:19;-2.70;80.20
19567;DHT22;9930;49.240;8.548;2022-12-17T18:36:47;-2.70;80.30
19567;DHT22;9930;49.240;8.548;2022-12-17T18:39:17;-2.70;80.10
19567;DHT22;9930;49.240;8.548;2022-12-17T18:41:48;-2.70;80.20
19567;DHT22;9930;49.240;8.548;2022-12-17T18:44:40;-2.70;80.30